Main page
METAR-TAF:

METAR-TAF

Airports :

Lankaran International Airport

Lankaran, Azerbaijan

latitude: 38-44-47N, longitude: 048-49-04E, elevation: 9 m

Current weather observation

The report was made 1 hour and 30 minutes ago, at 21:00 UTC
Wind 3 kt from the South/Southwest
Temperature 21°C
Humidity 64%
Pressure 1013 hPa
Visibility 10 km or more

METAR: UBBL 052100Z 20003KT 9999 NSC 21/14 Q1013 NOSIG RMK MT OP

Time: 02:30 (22:30 UTC)

Forecast

The report was made 5 hours and 1 minutes ago, at 17:29 UTC
Forecast valid from 05 at 18 UTC to 06 at 18 UTC
Wind 8 kt from the South/Southeast
Visibility 10 km or more
Temporary
from 05 at 18 UTC to 06 at 04 UTC
Wind 8 kt from the South
Few clouds at a height of 4000 ft
Becoming
from 06 at 06 UTC to 06 at 08 UTC
Wind 10 kt from the East/Southeast

TAF: UBBL 051729Z 0518/0618 15008KT 9999 NSC TX30/0611Z TN18/0602Z TEMPO 0518/0604 18008KT FEW040 BECMG 0606/0608 12010KT

Weather observations and forecasts of more than 4000 airports (METAR and TAF reports).

The available stations are represented by yellow and red dots on the map.

Hover mouse over dot to see the name of the station.

Then click to see weather observations and forecasts.

To change the map : click on the green buttons with a black cross to zoom in, on the green button with a dash to zoom out, or on the green arrows for adjacent maps.


METAR-TAF: